Time;durP1;ratioP1;P1;durP2;ratioP2;P2;SDS_P1;SDS_P2;PMS_P1;PMS_P2;Temp;Humidity;BMP_temperature;BMP_pressure;BME280_temperature;BME280_humidity;BME280_pressure;Samples;Min_cycle;Max_cycle;Signal;HPM_P1;HPM_P2
2021/12/29 00:02:18;;;;;;;11.93;7.13;;;7.30;99.90;;;;;;5054849;28;20154;-75
2021/12/29 00:04:44;;;;;;;11.90;6.75;;;7.30;99.90;;;;;;5054779;28;20473;-75
2021/12/29 00:07:12;;;;;;;11.20;6.78;;;7.30;99.90;;;;;;5054721;28;20036;-75
2021/12/29 00:09:40;;;;;;;13.85;7.15;;;7.30;99.90;;;;;;5054732;28;20059;-75
2021/12/29 00:12:10;;;;;;;13.10;6.60;;;7.30;99.90;;;;;;5055581;28;20041;-75
2021/12/29 00:14:37;;;;;;;13.77;6.93;;;7.30;99.90;;;;;;5058699;28;20048;-74
2021/12/29 00:17:03;;;;;;;10.38;6.13;;;7.20;99.90;;;;;;5058860;28;20586;-75
2021/12/29 00:19:29;;;;;;;13.38;6.60;;;7.20;99.90;;;;;;5059693;28;20051;-75
2021/12/29 00:21:55;;;;;;;13.70;6.45;;;7.20;99.90;;;;;;5058336;28;20090;-75
2021/12/29 00:24:21;;;;;;;11.65;6.10;;;7.20;99.90;;;;;;5058492;28;20044;-75
2021/12/29 00:26:47;;;;;;;13.60;6.30;;;7.20;99.90;;;;;;5058486;28;20071;-75
2021/12/29 00:29:12;;;;;;;12.13;6.43;;;7.20;99.90;;;;;;5058722;28;20072;-74
2021/12/29 00:31:38;;;;;;;14.63;6.70;;;7.20;99.90;;;;;;5058394;28;20046;-75
2021/12/29 00:34:04;;;;;;;15.48;7.22;;;7.20;99.90;;;;;;5058260;28;20385;-75
2021/12/29 00:36:29;;;;;;;16.08;7.45;;;7.20;99.90;;;;;;5058235;28;20082;-75
2021/12/29 00:38:55;;;;;;;10.38;6.00;;;7.20;99.90;;;;;;5058165;28;20048;-75
2021/12/29 00:41:21;;;;;;;14.27;6.47;;;7.20;99.90;;;;;;5058169;28;20037;-74
2021/12/29 00:43:47;;;;;;;13.68;7.15;;;7.20;99.90;;;;;;5058078;28;20037;-74
2021/12/29 00:46:14;;;;;;;11.15;5.40;;;7.20;99.90;;;;;;5058001;28;20036;-75
2021/12/29 00:48:43;;;;;;;16.90;7.32;;;7.30;99.90;;;;;;5058237;28;20488;-75
2021/12/29 00:51:10;;;;;;;13.57;7.10;;;7.30;99.90;;;;;;5057984;28;20040;-75
2021/12/29 00:53:36;;;;;;;18.38;8.82;;;7.30;99.90;;;;;;5058092;28;20040;-75
2021/12/29 00:56:03;;;;;;;15.55;7.75;;;7.30;99.90;;;;;;5057903;28;20036;-75
2021/12/29 00:58:29;;;;;;;20.90;9.38;;;7.30;99.90;;;;;;5057821;28;20048;-75
2021/12/29 01:00:56;;;;;;;30.52;10.90;;;7.40;99.90;;;;;;5058125;28;20101;-75
2021/12/29 01:03:22;;;;;;;26.27;10.85;;;7.40;99.90;;;;;;5057626;28;20044;-75
2021/12/29 01:05:47;;;;;;;31.52;11.05;;;7.40;99.90;;;;;;5057854;28;20044;-75
2021/12/29 01:08:13;;;;;;;36.58;12.35;;;7.40;99.90;;;;;;5041347;28;20378;-75
2021/12/29 01:10:41;;;;;;;28.38;12.30;;;7.40;99.90;;;;;;5057591;28;20390;-75
2021/12/29 01:13:08;;;;;;;39.95;13.02;;;7.40;99.90;;;;;;5057509;28;20041;-75
2021/12/29 01:15:56;;;;;;;35.83;13.07;;;7.40;99.90;;;;;;5057534;28;20047;-74
2021/12/29 01:18:22;;;;;;;55.17;15.57;;;7.50;99.90;;;;;;5057503;28;20044;-75
2021/12/29 01:20:48;;;;;;;39.22;13.95;;;7.50;99.90;;;;;;5057352;28;20041;-75
2021/12/29 01:23:13;;;;;;;33.03;12.73;;;7.50;99.90;;;;;;5056445;28;20094;-75
2021/12/29 01:25:39;;;;;;;43.25;14.45;;;7.50;99.90;;;;;;5040412;28;20039;-75
2021/12/29 01:28:04;;;;;;;68.15;17.38;;;7.50;99.90;;;;;;5057373;28;20497;-75
2021/12/29 01:30:30;;;;;;;48.13;15.00;;;7.50;99.90;;;;;;5057511;28;20029;-75
2021/12/29 01:32:56;;;;;;;43.13;14.85;;;7.50;99.90;;;;;;5057125;28;20525;-75
2021/12/29 01:35:21;;;;;;;98.45;18.27;;;7.50;99.90;;;;;;5057401;28;20044;-75
2021/12/29 01:37:47;;;;;;;72.45;17.52;;;7.50;99.90;;;;;;5057348;28;20083;-75
2021/12/29 01:40:17;;;;;;;44.42;13.57;;;7.50;99.90;;;;;;5040485;28;20508;-75
2021/12/29 01:42:43;;;;;;;82.18;16.88;;;7.50;99.90;;;;;;5057247;28;20036;-75
2021/12/29 01:45:10;;;;;;;101.30;19.05;;;7.50;99.90;;;;;;5056890;28;20420;-75
2021/12/29 01:47:37;;;;;;;101.53;18.40;;;7.50;99.90;;;;;;5040278;28;20068;-75
2021/12/29 01:50:05;;;;;;;59.95;15.52;;;7.50;99.90;;;;;;5057153;28;20048;-75
2021/12/29 01:52:37;;;;;;;84.38;18.60;;;7.50;99.90;;;;;;5056768;28;20041;-75
2021/12/29 01:55:05;;;;;;;96.65;18.15;;;7.50;99.90;;;;;;5056867;28;20412;-75
2021/12/29 01:57:31;;;;;;;60.83;15.90;;;7.50;99.90;;;;;;5056741;28;20516;-75
2021/12/29 01:59:56;;;;;;;92.57;16.70;;;7.50;99.90;;;;;;5057145;28;20041;-76
2021/12/29 02:02:22;;;;;;;104.78;17.52;;;7.50;99.90;;;;;;5039913;28;20040;-76
2021/12/29 02:04:48;;;;;;;96.43;17.25;;;7.50;99.90;;;;;;5056457;28;20477;-77
2021/12/29 02:07:13;;;;;;;88.55;17.02;;;7.50;99.90;;;;;;5056413;28;20033;-77
2021/12/29 02:09:39;;;;;;;68.90;15.95;;;7.60;99.90;;;;;;5056413;28;20044;-76
2021/12/29 02:12:06;;;;;;;68.72;14.15;;;7.60;99.90;;;;;;5039680;28;20116;-76
2021/12/29 02:14:32;;;;;;;61.90;14.30;;;7.60;99.90;;;;;;5039782;28;20048;-76
2021/12/29 02:16:59;;;;;;;96.63;16.50;;;7.60;99.90;;;;;;5039689;28;20036;-76
2021/12/29 02:19:26;;;;;;;78.63;15.27;;;7.60;99.90;;;;;;5056279;28;20086;-77
2021/12/29 02:22:11;;;;;;;55.33;13.48;;;7.60;99.90;;;;;;5056090;28;20045;-76
2021/12/29 02:24:41;;;;;;;69.90;13.40;;;7.60;99.90;;;;;;5056506;28;20080;-77
2021/12/29 02:27:09;;;;;;;49.20;12.75;;;7.60;99.90;;;;;;5056036;28;20051;-77
2021/12/29 02:29:36;;;;;;;45.22;11.85;;;7.70;99.90;;;;;;5056145;28;20036;-76
2021/12/29 02:32:02;;;;;;;48.85;12.65;;;7.70;99.90;;;;;;5055960;28;20036;-76
2021/12/29 02:34:28;;;;;;;49.97;12.35;;;7.70;99.90;;;;;;5039299;28;20120;-77
2021/12/29 02:36:57;;;;;;;59.08;12.85;;;7.70;99.90;;;;;;5055857;28;20119;-77
2021/12/29 02:39:22;;;;;;;57.58;13.45;;;7.70;99.90;;;;;;5055863;28;20055;-77
2021/12/29 02:41:52;;;;;;;44.72;11.60;;;7.70;99.90;;;;;;5039534;28;20041;-77
2021/12/29 02:44:25;;;;;;;45.78;12.30;;;7.70;99.90;;;;;;5056016;28;20044;-76
2021/12/29 02:46:51;;;;;;;51.05;12.93;;;7.70;99.90;;;;;;5055680;28;20040;-77
2021/12/29 02:49:17;;;;;;;42.25;12.65;;;7.70;99.90;;;;;;5055926;28;20042;-76
2021/12/29 02:51:43;;;;;;;62.58;15.02;;;7.70;99.90;;;;;;5055593;28;20400;-76
2021/12/29 02:54:09;;;;;;;33.25;11.68;;;7.70;99.90;;;;;;5055565;28;20043;-76
2021/12/29 02:56:34;;;;;;;45.28;12.85;;;7.60;99.90;;;;;;5038996;28;20036;-77
2021/12/29 02:59:00;;;;;;;43.10;12.70;;;7.70;99.90;;;;;;5038908;28;20040;-77
2021/12/29 03:01:27;;;;;;;53.88;14.68;;;7.70;99.90;;;;;;5039163;28;20040;-76
2021/12/29 03:03:57;;;;;;;52.30;14.80;;;7.70;99.90;;;;;;5055420;28;20044;-76
2021/12/29 03:06:23;;;;;;;66.63;16.38;;;7.70;99.90;;;;;;5055492;28;20043;-76
2021/12/29 03:08:49;;;;;;;60.95;16.38;;;7.60;99.90;;;;;;5055305;28;20036;-76
2021/12/29 03:11:14;;;;;;;42.65;14.82;;;7.70;99.90;;;;;;5055577;28;20032;-77
2021/12/29 03:13:41;;;;;;;44.22;15.07;;;7.70;99.90;;;;;;5055285;28;20454;-76
2021/12/29 03:16:07;;;;;;;45.13;15.60;;;7.70;99.90;;;;;;5055235;28;20548;-76
2021/12/29 03:18:33;;;;;;;62.22;17.00;;;7.70;99.90;;;;;;5038599;28;20191;-76
2021/12/29 03:20:59;;;;;;;52.72;16.65;;;7.70;99.90;;;;;;5055178;28;20040;-76
2021/12/29 03:23:24;;;;;;;47.53;15.52;;;7.80;99.90;;;;;;5055066;28;20120;-76
2021/12/29 03:25:51;;;;;;;48.28;16.90;;;7.80;99.90;;;;;;5055218;28;20032;-77
2021/12/29 03:28:20;;;;;;;47.22;16.55;;;7.80;99.90;;;;;;5055497;28;20051;-77
2021/12/29 03:30:50;;;;;;;48.33;17.58;;;7.80;99.90;;;;;;5038571;28;20042;-77
2021/12/29 03:33:15;;;;;;;50.22;17.75;;;7.80;99.90;;;;;;5054973;28;20040;-76
2021/12/29 03:35:46;;;;;;;35.65;15.90;;;7.80;99.90;;;;;;5055037;28;20043;-76
2021/12/29 03:38:18;;;;;;;39.42;17.20;;;7.80;99.90;;;;;;5055012;28;20543;-77
2021/12/29 03:40:44;;;;;;;35.88;17.48;;;7.80;99.90;;;;;;5055068;28;20051;-76
2021/12/29 03:43:11;;;;;;;41.95;17.17;;;7.80;99.90;;;;;;5055110;28;20032;-76
2021/12/29 03:45:39;;;;;;;30.15;16.00;;;7.80;99.90;;;;;;5054753;28;20033;-77
2021/12/29 03:48:05;;;;;;;39.05;17.98;;;7.80;99.90;;;;;;5057801;28;20091;-77
2021/12/29 03:50:31;;;;;;;37.78;18.10;;;7.90;99.90;;;;;;5059104;28;20036;-76
2021/12/29 03:52:57;;;;;;;28.25;15.70;;;7.90;99.90;;;;;;5059007;28;20090;-76
2021/12/29 03:55:22;;;;;;;32.88;16.63;;;7.90;99.90;;;;;;5059263;28;20042;-77
2021/12/29 03:57:48;;;;;;;30.90;16.75;;;7.90;99.90;;;;;;5058984;28;20451;-77
2021/12/29 04:00:16;;;;;;;33.00;16.83;;;7.90;99.90;;;;;;5059002;28;20075;-76
2021/12/29 04:02:43;;;;;;;32.85;16.25;;;7.90;99.90;;;;;;5058833;28;20039;-76
2021/12/29 04:05:11;;;;;;;31.00;16.42;;;7.90;99.90;;;;;;5058821;28;20494;-77
2021/12/29 04:07:37;;;;;;;29.92;15.65;;;7.90;99.90;;;;;;5058803;28;20405;-77
2021/12/29 04:10:05;;;;;;;31.48;16.75;;;8.00;99.90;;;;;;5058825;28;20032;-77
2021/12/29 04:12:31;;;;;;;28.90;15.95;;;8.00;99.90;;;;;;5058680;28;20571;-76
2021/12/29 04:14:57;;;;;;;34.28;17.02;;;8.00;99.90;;;;;;5058634;28;20079;-77
2021/12/29 04:17:36;;;;;;;26.70;15.18;;;7.90;99.90;;;;;;5058863;28;20079;-76
2021/12/29 04:22:50;;;;;;;33.25;16.00;;;7.90;99.90;;;;;;5058299;28;20044;-76
2021/12/29 04:25:17;;;;;;;29.85;16.42;;;7.90;99.90;;;;;;5041710;28;20040;-77
2021/12/29 04:27:43;;;;;;;32.78;17.00;;;7.90;99.90;;;;;;5058409;28;20493;-76
2021/12/29 04:30:09;;;;;;;31.20;17.05;;;8.00;99.90;;;;;;5058370;28;20040;-76
2021/12/29 04:32:35;;;;;;;34.90;16.88;;;8.00;99.90;;;;;;5058190;28;20032;-77
2021/12/29 04:35:00;;;;;;;30.73;16.02;;;7.90;99.90;;;;;;5041756;28;20081;-77
2021/12/29 04:37:26;;;;;;;29.90;15.88;;;8.00;99.90;;;;;;5058495;28;20040;-77
2021/12/29 04:39:51;;;;;;;28.48;16.58;;;8.00;99.90;;;;;;5058375;28;20036;-76
2021/12/29 04:42:17;;;;;;;32.55;16.55;;;8.00;99.90;;;;;;5041496;28;20515;-76
2021/12/29 04:44:43;;;;;;;31.25;16.00;;;7.90;99.90;;;;;;5041417;28;20032;-76
2021/12/29 04:47:08;;;;;;;32.97;16.90;;;7.90;99.90;;;;;;5041424;28;20041;-77
2021/12/29 04:49:40;;;;;;;28.42;15.93;;;7.90;99.90;;;;;;5041599;28;20474;-76
2021/12/29 04:52:07;;;;;;;32.15;15.75;;;7.90;99.90;;;;;;5057972;28;20485;-76
2021/12/29 04:54:34;;;;;;;28.35;15.15;;;7.90;99.90;;;;;;5058965;28;20055;-76
2021/12/29 04:57:01;;;;;;;27.27;14.45;;;7.90;99.90;;;;;;5057844;28;20132;-76
2021/12/29 04:59:28;;;;;;;28.85;14.57;;;8.00;99.90;;;;;;5040939;28;20044;-76
2021/12/29 05:01:53;;;;;;;27.00;14.43;;;8.00;99.90;;;;;;5057973;28;20044;-77
2021/12/29 05:04:22;;;;;;;33.92;15.65;;;8.00;99.90;;;;;;5057753;28;20128;-77
2021/12/29 05:09:33;;;;;;;28.33;15.55;;;8.00;99.90;;;;;;5057829;28;20086;-77
2021/12/29 05:12:01;;;;;;;37.88;15.88;;;8.00;99.90;;;;;;5057753;28;20044;-76
2021/12/29 05:14:27;;;;;;;39.88;15.93;;;8.00;99.90;;;;;;5057511;28;20041;-77
2021/12/29 05:16:53;;;;;;;30.77;15.43;;;8.00;99.90;;;;;;5057721;28;20508;-77
2021/12/29 05:19:19;;;;;;;32.05;15.65;;;8.00;99.90;;;;;;5057630;28;20051;-76
2021/12/29 05:21:45;;;;;;;31.48;14.70;;;8.00;99.90;;;;;;5057526;28;20040;-76
2021/12/29 05:24:10;;;;;;;28.67;14.82;;;8.00;99.90;;;;;;5057543;28;20496;-76
2021/12/29 05:26:36;;;;;;;28.83;14.25;;;8.00;99.90;;;;;;5057338;28;20045;-77
2021/12/29 05:29:02;;;;;;;25.60;13.57;;;8.00;99.90;;;;;;5057288;28;20037;-77
2021/12/29 05:31:28;;;;;;;30.33;14.70;;;8.00;99.90;;;;;;5057465;28;20032;-76
2021/12/29 05:33:54;;;;;;;31.13;15.75;;;8.00;99.90;;;;;;5057625;28;20123;-76
2021/12/29 05:36:20;;;;;;;26.55;14.43;;;8.00;99.90;;;;;;5057065;28;20131;-76
2021/12/29 05:38:45;;;;;;;22.80;13.93;;;8.00;99.90;;;;;;5057093;28;20071;-76
2021/12/29 05:41:11;;;;;;;20.67;14.02;;;8.00;99.90;;;;;;5057163;28;20037;-77
2021/12/29 05:43:37;;;;;;;34.00;16.27;;;8.00;99.90;;;;;;5056934;28;20047;-76
2021/12/29 05:46:02;;;;;;;27.15;13.93;;;8.00;99.90;;;;;;5056824;28;20044;-77
2021/12/29 05:48:28;;;;;;;24.60;13.95;;;8.00;99.90;;;;;;5056918;28;20036;-76
2021/12/29 05:50:53;;;;;;;25.45;14.55;;;8.00;99.90;;;;;;5056868;28;20116;-77
2021/12/29 05:53:19;;;;;;;26.33;14.88;;;8.00;99.90;;;;;;5056979;28;20076;-76
2021/12/29 05:55:45;;;;;;;23.70;14.73;;;8.00;99.90;;;;;;5057035;28;20045;-77
2021/12/29 05:58:10;;;;;;;30.98;15.73;;;8.00;99.90;;;;;;5056752;28;20036;-77
2021/12/29 06:00:38;;;;;;;34.50;16.70;;;8.00;99.90;;;;;;5056708;28;20087;-77
2021/12/29 06:03:03;;;;;;;27.55;15.75;;;8.00;99.90;;;;;;5056597;28;20075;-76
2021/12/29 06:05:29;;;;;;;27.77;15.30;;;8.00;99.90;;;;;;5056573;28;20083;-77
2021/12/29 06:07:55;;;;;;;31.42;16.15;;;8.00;99.90;;;;;;5056812;28;20032;-77
2021/12/29 06:10:21;;;;;;;31.15;14.90;;;8.00;99.90;;;;;;5055842;28;20040;-76
2021/12/29 06:12:47;;;;;;;35.35;16.50;;;8.00;99.90;;;;;;5039722;28;20187;-76
2021/12/29 06:15:13;;;;;;;36.13;16.88;;;8.00;99.90;;;;;;5056378;28;20040;-77
2021/12/29 06:17:39;;;;;;;34.78;15.80;;;8.00;99.90;;;;;;5056646;28;20046;-77
2021/12/29 06:20:08;;;;;;;29.50;16.30;;;8.00;99.90;;;;;;5056252;28;20036;-77
2021/12/29 06:22:34;;;;;;;33.63;16.50;;;8.00;99.90;;;;;;5056041;28;20500;-76
2021/12/29 06:25:00;;;;;;;28.77;14.07;;;8.00;99.90;;;;;;5056390;28;20040;-77
2021/12/29 06:27:26;;;;;;;33.33;16.95;;;8.00;99.90;;;;;;5056210;28;20504;-76
2021/12/29 06:29:51;;;;;;;31.60;15.07;;;8.00;99.90;;;;;;5056351;28;20041;-76
2021/12/29 06:32:18;;;;;;;36.83;15.85;;;8.00;99.90;;;;;;5056265;28;20039;-76
2021/12/29 06:34:43;;;;;;;31.20;15.00;;;8.00;99.90;;;;;;5055961;28;20036;-77
2021/12/29 06:37:12;;;;;;;27.73;14.00;;;8.00;99.90;;;;;;5039371;28;20051;-76
2021/12/29 06:39:38;;;;;;;29.90;14.25;;;8.00;99.90;;;;;;5056027;28;20102;-76
2021/12/29 06:42:04;;;;;;;22.70;13.05;;;8.00;99.90;;;;;;5055744;28;20413;-76
2021/12/29 06:44:30;;;;;;;22.08;12.43;;;8.00;99.90;;;;;;5055824;28;20040;-76
2021/12/29 06:46:55;;;;;;;24.95;12.82;;;8.00;99.90;;;;;;5055703;28;20047;-76
2021/12/29 06:49:21;;;;;;;30.08;13.85;;;8.00;99.90;;;;;;5055997;28;20090;-76
2021/12/29 06:51:49;;;;;;;25.38;12.80;;;8.00;99.90;;;;;;5055696;28;20032;-76
2021/12/29 06:54:14;;;;;;;25.30;12.10;;;8.00;99.90;;;;;;5038959;28;20215;-76
2021/12/29 06:56:40;;;;;;;22.27;12.18;;;8.00;99.90;;;;;;5039047;28;20150;-77
2021/12/29 06:59:06;;;;;;;23.00;12.35;;;8.00;99.90;;;;;;5055628;28;20032;-76
2021/12/29 07:01:31;;;;;;;26.60;13.50;;;8.00;99.90;;;;;;5039007;28;20086;-76
2021/12/29 07:03:57;;;;;;;24.92;13.07;;;8.00;99.90;;;;;;5055398;28;20046;-76
2021/12/29 07:06:23;;;;;;;31.08;13.27;;;8.00;99.90;;;;;;5038954;28;20071;-76
2021/12/29 07:08:49;;;;;;;23.70;11.15;;;8.00;99.90;;;;;;5038849;28;20485;-76
2021/12/29 07:11:14;;;;;;;29.55;12.75;;;8.00;99.90;;;;;;5038790;28;20032;-76
2021/12/29 07:13:42;;;;;;;37.70;14.68;;;8.00;99.90;;;;;;5038762;28;20070;-76
2021/12/29 07:16:07;;;;;;;37.22;15.10;;;8.00;99.90;;;;;;5038998;28;20059;-76
2021/12/29 07:18:33;;;;;;;36.47;15.63;;;8.00;99.90;;;;;;5055358;28;20412;-76
2021/12/29 07:20:58;;;;;;;31.55;14.77;;;8.00;99.90;;;;;;5055247;28;20048;-76
2021/12/29 07:23:24;;;;;;;32.33;13.60;;;8.00;99.90;;;;;;5055333;28;20045;-76
2021/12/29 07:25:50;;;;;;;39.05;14.88;;;8.00;99.90;;;;;;5055191;28;20505;-76
2021/12/29 07:28:15;;;;;;;36.22;14.63;;;7.90;99.90;;;;;;5038629;28;20043;-76
2021/12/29 07:30:41;;;;;;;39.10;14.52;;;8.00;99.90;;;;;;5055465;28;20040;-76
2021/12/29 07:33:07;;;;;;;49.13;15.50;;;8.00;99.90;;;;;;5055078;28;20386;-76
2021/12/29 07:35:33;;;;;;;35.08;13.88;;;8.00;99.90;;;;;;5038774;28;20051;-77
2021/12/29 07:37:58;;;;;;;43.65;15.80;;;8.00;99.90;;;;;;5055397;28;20123;-77
2021/12/29 07:40:24;;;;;;;34.53;14.55;;;8.00;99.90;;;;;;5038742;28;20048;-76
2021/12/29 07:42:49;;;;;;;33.28;13.75;;;8.00;99.90;;;;;;5054976;28;20043;-76
2021/12/29 07:45:15;;;;;;;34.00;13.35;;;8.00;99.90;;;;;;5054947;28;20041;-76
2021/12/29 07:47:45;;;;;;;47.92;15.07;;;8.00;99.90;;;;;;5054990;28;20117;-76
2021/12/29 07:50:11;;;;;;;45.92;15.80;;;8.00;99.90;;;;;;5054988;28;20036;-77
2021/12/29 07:52:37;;;;;;;45.42;14.80;;;8.00;99.90;;;;;;5038261;28;20454;-76
2021/12/29 07:55:04;;;;;;;40.67;15.07;;;8.00;99.90;;;;;;5054909;28;20452;-77
2021/12/29 07:57:29;;;;;;;35.38;14.63;;;8.00;99.90;;;;;;5054856;28;20033;-76
2021/12/29 07:59:55;;;;;;;25.27;13.63;;;8.10;99.90;;;;;;5055453;28;20097;-76
2021/12/29 08:02:27;;;;;;;41.58;15.07;;;8.10;99.90;;;;;;5038323;28;20037;-77
2021/12/29 08:04:55;;;;;;;31.25;13.95;;;8.10;99.90;;;;;;5055235;28;20408;-77
2021/12/29 08:07:22;;;;;;;29.77;13.50;;;8.10;99.90;;;;;;5055011;28;20052;-77
2021/12/29 08:09:48;;;;;;;33.03;13.95;;;8.10;99.90;;;;;;5055942;28;20036;-76
2021/12/29 08:12:13;;;;;;;28.10;11.63;;;8.10;99.90;;;;;;5054726;28;20408;-76
2021/12/29 08:14:39;;;;;;;33.10;13.63;;;8.10;99.90;;;;;;5054750;28;20048;-77
2021/12/29 08:17:05;;;;;;;41.95;14.43;;;8.10;99.90;;;;;;5038464;28;20054;-76
2021/12/29 08:19:31;;;;;;;35.17;13.23;;;8.10;99.90;;;;;;5038120;28;20076;-76
2021/12/29 08:21:56;;;;;;;50.42;16.42;;;8.10;99.90;;;;;;5054485;28;20068;-76
2021/12/29 08:24:22;;;;;;;32.13;13.10;;;8.10;99.90;;;;;;5038413;28;20072;-76
2021/12/29 08:26:48;;;;;;;50.38;16.08;;;8.20;99.90;;;;;;5054845;28;20516;-76
2021/12/29 08:29:13;;;;;;;47.55;15.02;;;8.10;99.90;;;;;;5054564;28;20080;-77
2021/12/29 08:31:39;;;;;;;36.28;15.35;;;8.10;99.90;;;;;;5054852;28;20041;-76
2021/12/29 08:34:04;;;;;;;50.85;15.93;;;8.10;99.90;;;;;;5056786;28;20471;-76
2021/12/29 08:36:30;;;;;;;32.80;13.70;;;8.20;99.90;;;;;;5041667;28;20110;-76
2021/12/29 08:38:56;;;;;;;51.90;15.98;;;8.10;99.90;;;;;;5041663;28;20131;-76
2021/12/29 08:41:21;;;;;;;32.88;12.73;;;8.10;99.90;;;;;;5041603;28;20110;-76
2021/12/29 08:43:47;;;;;;;39.28;13.68;;;8.10;99.90;;;;;;5041758;28;20033;-76
2021/12/29 08:46:14;;;;;;;51.75;15.30;;;8.10;99.90;;;;;;5058020;28;20050;-76
2021/12/29 08:48:42;;;;;;;28.10;11.30;;;8.10;99.90;;;;;;5058037;28;20048;-75
2021/12/29 08:51:08;;;;;;;39.47;13.55;;;8.10;99.90;;;;;;5058100;28;20076;-77
2021/12/29 08:53:36;;;;;;;27.83;11.55;;;8.10;99.90;;;;;;5058128;28;20075;-76
2021/12/29 08:56:02;;;;;;;30.95;12.15;;;8.20;99.90;;;;;;5058180;28;20098;-76
2021/12/29 08:58:28;;;;;;;43.58;13.25;;;8.10;99.90;;;;;;5057959;28;20047;-77
2021/12/29 09:00:55;;;;;;;30.95;12.52;;;8.20;99.90;;;;;;5057935;28;20066;-77
2021/12/29 09:03:22;;;;;;;37.78;11.77;;;8.20;99.90;;;;;;5057726;28;20119;-76
2021/12/29 09:05:48;;;;;;;39.45;13.20;;;8.20;99.90;;;;;;5057702;28;20044;-77
2021/12/29 09:08:14;;;;;;;40.63;13.52;;;8.20;99.90;;;;;;5041092;28;20036;-77
2021/12/29 09:10:41;;;;;;;45.60;14.40;;;8.20;99.90;;;;;;5057753;28;20044;-76
2021/12/29 09:13:06;;;;;;;48.88;14.02;;;8.20;99.90;;;;;;5040975;28;20036;-76
2021/12/29 09:15:32;;;;;;;35.45;12.75;;;8.20;99.90;;;;;;5041049;28;20036;-76
2021/12/29 09:17:59;;;;;;;66.47;16.10;;;8.20;99.90;;;;;;5057605;28;20518;-76
2021/12/29 09:20:30;;;;;;;70.15;15.48;;;8.30;99.90;;;;;;5057490;28;20512;-76
2021/12/29 09:23:01;;;;;;;74.63;16.85;;;8.30;99.90;;;;;;5057274;28;20048;-76
2021/12/29 09:25:27;;;;;;;39.90;12.55;;;8.30;99.90;;;;;;5040697;28;20040;-77
2021/12/29 09:27:53;;;;;;;63.63;14.85;;;8.30;99.90;;;;;;5057369;28;20036;-76
2021/12/29 09:30:21;;;;;;;54.55;14.15;;;8.30;99.90;;;;;;5057321;28;20120;-77
2021/12/29 09:32:47;;;;;;;92.35;17.25;;;8.30;99.90;;;;;;5057203;28;20515;-76
2021/12/29 09:35:13;;;;;;;53.58;13.07;;;8.30;99.90;;;;;;5057529;28;20032;-77
2021/12/29 09:37:40;;;;;;;40.58;11.88;;;8.30;99.90;;;;;;5057223;28;20037;-77
2021/12/29 09:40:06;;;;;;;40.35;12.82;;;8.30;99.90;;;;;;5057214;28;20040;-77
2021/12/29 09:42:32;;;;;;;25.85;10.98;;;8.40;99.90;;;;;;5057271;28;20041;-76
2021/12/29 09:44:58;;;;;;;25.80;9.27;;;8.40;99.90;;;;;;5056043;28;20413;-76
2021/12/29 09:47:24;;;;;;;20.20;8.05;;;8.40;99.90;;;;;;5056959;28;20037;-76
2021/12/29 09:49:50;;;;;;;16.92;7.28;;;8.40;99.90;;;;;;5056953;28;20028;-77
2021/12/29 09:52:15;;;;;;;11.68;5.95;;;8.50;99.90;;;;;;5056930;28;20093;-77
2021/12/29 09:54:41;;;;;;;11.32;5.88;;;8.50;99.90;;;;;;5056883;28;20043;-76
2021/12/29 09:57:07;;;;;;;11.13;6.22;;;8.50;99.90;;;;;;5040243;28;20040;-77
2021/12/29 09:59:32;;;;;;;11.55;6.43;;;8.50;99.90;;;;;;5040134;28;20079;-77
2021/12/29 10:01:58;;;;;;;16.85;7.50;;;8.60;99.90;;;;;;5040317;28;20040;-76
2021/12/29 10:04:25;;;;;;;10.55;6.13;;;8.60;99.90;;;;;;5056718;28;20500;-76
2021/12/29 10:06:51;;;;;;;12.98;5.72;;;8.60;99.90;;;;;;5056542;28;20044;-76
2021/12/29 10:09:18;;;;;;;17.85;7.07;;;8.70;99.90;;;;;;5056844;28;20036;-76
2021/12/29 10:11:46;;;;;;;17.95;6.80;;;8.70;99.90;;;;;;5040489;28;20044;-76
2021/12/29 10:14:14;;;;;;;17.48;7.15;;;8.70;99.90;;;;;;5056613;28;20052;-76
2021/12/29 10:16:41;;;;;;;16.00;7.20;;;8.70;99.90;;;;;;5056369;28;20413;-77
2021/12/29 10:19:12;;;;;;;21.85;7.90;;;8.80;99.90;;;;;;5056392;28;20098;-76
2021/12/29 10:21:46;;;;;;;14.82;7.63;;;8.80;99.90;;;;;;5056417;28;20044;-77
2021/12/29 10:24:12;;;;;;;18.67;8.13;;;8.70;99.90;;;;;;5056508;28;20082;-77
2021/12/29 10:26:41;;;;;;;15.93;7.75;;;8.80;99.90;;;;;;5056185;28;20040;-77
2021/12/29 10:29:10;;;;;;;24.10;8.52;;;8.80;99.90;;;;;;5056141;28;20045;-76
2021/12/29 10:31:45;;;;;;;21.08;9.10;;;8.80;99.90;;;;;;5056135;28;20032;-76
2021/12/29 10:34:15;;;;;;;19.65;8.35;;;8.80;99.90;;;;;;5056070;28;20126;-77
2021/12/29 10:36:47;;;;;;;23.27;8.40;;;8.80;99.90;;;;;;5056024;28;20072;-77
2021/12/29 10:39:17;;;;;;;16.65;8.07;;;8.80;99.90;;;;;;5055972;28;20087;-76
2021/12/29 10:41:48;;;;;;;18.13;7.82;;;8.80;99.90;;;;;;5056205;28;20048;-76
2021/12/29 10:44:15;;;;;;;19.77;8.02;;;8.80;99.90;;;;;;5055778;28;20040;-76
2021/12/29 10:46:41;;;;;;;15.82;6.75;;;8.80;99.90;;;;;;5055901;28;20071;-77
2021/12/29 10:49:09;;;;;;;18.75;7.57;;;8.90;99.90;;;;;;5056069;28;20409;-76
2021/12/29 10:51:37;;;;;;;20.25;7.57;;;8.90;99.90;;;;;;5055741;28;20493;-77
2021/12/29 10:54:06;;;;;;;16.58;8.00;;;8.80;99.90;;;;;;5055584;28;20036;-76
2021/12/29 10:56:33;;;;;;;20.17;8.35;;;8.80;99.90;;;;;;5055452;28;20045;-77
2021/12/29 10:58:59;;;;;;;23.17;8.65;;;8.80;99.90;;;;;;5055607;28;20524;-77
2021/12/29 11:01:24;;;;;;;24.08;9.02;;;8.80;99.90;;;;;;5055613;28;20040;-76
2021/12/29 11:03:57;;;;;;;23.17;8.85;;;8.70;99.90;;;;;;5039139;28;20048;-77
2021/12/29 11:06:25;;;;;;;28.73;10.37;;;8.70;99.90;;;;;;5055456;28;20072;-77
2021/12/29 11:09:00;;;;;;;27.00;9.32;;;8.70;99.90;;;;;;5055608;28;20510;-77
2021/12/29 11:11:46;;;;;;;24.95;8.00;;;8.70;99.90;;;;;;5055760;28;20047;-76
2021/12/29 11:14:14;;;;;;;28.30;8.88;;;8.70;99.90;;;;;;5055383;28;20055;-76
2021/12/29 11:16:41;;;;;;;33.42;8.38;;;8.70;99.90;;;;;;5055652;28;20079;-76
2021/12/29 11:19:07;;;;;;;29.25;8.50;;;8.70;99.90;;;;;;5055548;28;20512;-76
2021/12/29 11:21:38;;;;;;;21.40;8.38;;;8.70;99.90;;;;;;5055574;28;20058;-76
2021/12/29 11:24:17;;;;;;;30.38;8.98;;;8.70;99.90;;;;;;5038818;28;20374;-76
2021/12/29 11:26:43;;;;;;;28.08;8.55;;;8.80;99.90;;;;;;5055240;28;20043;-76
2021/12/29 11:29:15;;;;;;;28.48;8.80;;;8.80;99.90;;;;;;5055117;28;20069;-76
2021/12/29 11:31:48;;;;;;;29.92;8.02;;;8.80;99.90;;;;;;5038628;28;20044;-76
2021/12/29 11:34:24;;;;;;;29.45;9.35;;;8.90;99.90;;;;;;5038755;28;20032;-76
2021/12/29 11:37:11;;;;;;;34.10;7.97;;;8.90;99.90;;;;;;5038576;28;20037;-74
2021/12/29 11:39:40;;;;;;;26.38;7.97;;;8.90;99.90;;;;;;5038601;28;20044;-74
2021/12/29 11:42:06;;;;;;;22.95;7.32;;;8.90;99.90;;;;;;5055022;28;20560;-74
2021/12/29 11:44:32;;;;;;;32.22;7.80;;;8.90;99.90;;;;;;5055306;28;20036;-74
2021/12/29 11:46:58;;;;;;;34.20;7.90;;;8.90;99.90;;;;;;5054962;28;20040;-73
2021/12/29 11:49:24;;;;;;;26.08;7.40;;;8.90;99.90;;;;;;5054918;28;20123;-74
2021/12/29 11:52:20;;;;;;;22.30;8.75;;;8.90;99.90;;;;;;5055004;28;20037;-72
2021/12/29 11:54:49;;;;;;;27.35;6.88;;;8.90;99.90;;;;;;5055041;28;20037;-73
2021/12/29 11:57:20;;;;;;;19.98;6.07;;;8.80;99.90;;;;;;5054976;28;20048;-73
2021/12/29 11:59:46;;;;;;;19.17;5.18;;;8.80;99.90;;;;;;5055239;28;20076;-73
2021/12/29 12:02:26;;;;;;;21.58;5.85;;;8.80;99.90;;;;;;5055547;28;20109;-74
2021/12/29 12:05:06;;;;;;;22.33;5.32;;;8.80;99.90;;;;;;5055326;28;20044;-73
2021/12/29 12:07:32;;;;;;;17.95;4.68;;;8.80;99.90;;;;;;5054914;28;20041;-73
2021/12/29 12:10:01;;;;;;;27.95;5.57;;;8.80;99.90;;;;;;5058996;28;20039;-73
2021/12/29 12:12:39;;;;;;;22.08;5.43;;;8.70;99.90;;;;;;5059002;28;20079;-73
2021/12/29 12:15:07;;;;;;;24.10;5.90;;;8.80;99.90;;;;;;5058776;28;20485;-74
2021/12/29 12:17:33;;;;;;;20.08;5.63;;;8.70;99.90;;;;;;5058954;28;20045;-74
2021/12/29 12:20:09;;;;;;;21.52;5.95;;;8.70;99.90;;;;;;5058900;28;20438;-74
2021/12/29 12:22:43;;;;;;;23.63;6.40;;;8.70;99.90;;;;;;5058536;28;20036;-74
2021/12/29 12:25:08;;;;;;;29.65;7.38;;;8.70;99.90;;;;;;5058453;28;20394;-74
2021/12/29 12:27:41;;;;;;;20.35;5.72;;;8.70;99.90;;;;;;5058493;28;20047;-74
2021/12/29 12:30:18;;;;;;;22.80;6.20;;;8.70;99.90;;;;;;5058539;28;20036;-74
2021/12/29 12:32:51;;;;;;;29.50;6.97;;;8.70;99.90;;;;;;5041887;28;20033;-74
2021/12/29 12:35:36;;;;;;;21.95;5.90;;;8.70;99.90;;;;;;5041736;28;20048;-74
2021/12/29 12:38:13;;;;;;;17.35;5.93;;;8.70;99.90;;;;;;5058319;28;20041;-73
2021/12/29 12:40:41;;;;;;;23.42;6.65;;;8.70;99.90;;;;;;5058191;28;20037;-71
2021/12/29 12:43:16;;;;;;;25.08;6.13;;;8.60;99.90;;;;;;5058190;28;20044;-72
2021/12/29 12:45:47;;;;;;;20.08;5.80;;;8.70;99.90;;;;;;5058158;28;20128;-72
2021/12/29 12:48:23;;;;;;;21.55;6.70;;;8.60;99.90;;;;;;5058207;28;20032;-72